Aviation Digital Data Service (ADDS)

Output produced by METARs form (1510 UTC 04 August 2021)
found at http://www.aviationweather.gov/metar/data/
 
METAR text: KPDX 041500Z 32004KT 10SM BKN010 18/14 A3001 RMK AO2 T01780139
Conditions at: KPDX (PORTLAND , OR, US) observed 1500 UTC 04 August 2021
Temperature: 17.8°C (64°F)
Dewpoint: 13.9°C (57°F) [RH = 78%]
Pressure (altimeter): 30.01 inches Hg (1016.3 mb)
Winds: from the NW (320 degrees) at 5 MPH (4 knots; 2.1 m/s)
Visibility: 10 or more miles (16+ km)
Ceiling: 1000 feet AGL
Clouds: broken clouds at 1000 feet AGL
Weather: no significant weather observed at this time

METAR text: KPDX 041453Z 30005KT 10SM BKN009 18/14 A3001 RMK AO2 SLP161 T01780139 53000
Conditions at: KPDX (PORTLAND , OR, US) observed 1453 UTC 04 August 2021
Temperature: 17.8°C (64°F)
Dewpoint: 13.9°C (57°F) [RH = 78%]
Pressure (altimeter): 30.01 inches Hg (1016.3 mb)
[Sea-level pressure: 1016.1 mb]
Winds: from the WNW (300 degrees) at 6 MPH (5 knots; 2.6 m/s)
Visibility: 10 or more miles (16+ km)
Ceiling: 900 feet AGL
Clouds: broken clouds at 900 feet AGL
Weather: no significant weather observed at this time

Forecast for: KPDX (PORTLAND , OR, US)
Text: KPDX 041445Z 0415/0512 33005KT P6SM BKN009
Forecast period: 1500 to 1600 UTC 04 August 2021
Forecast type: FROM: standard forecast or significant change
Winds: from the NNW (330 degrees) at 6 MPH (5 knots; 2.6 m/s)
Visibility: 6 or more miles (10+ km)
Ceiling: 900 feet AGL
Clouds: broken clouds at 900 feet AGL
Weather: no significant weather forecast for this period
Text: FM041600 33005KT P6SM BKN012
Forecast period: 1600 to 1800 UTC 04 August 2021
Forecast type: FROM: standard forecast or significant change
Winds: from the NNW (330 degrees) at 6 MPH (5 knots; 2.6 m/s)
Visibility: 6 or more miles (10+ km)
Ceiling: 1200 feet AGL
Clouds: broken clouds at 1200 feet AGL
Weather: no significant weather forecast for this period
Text: FM041800 33007KT P6SM SKC
Forecast period: 1800 UTC 04 August 2021 to 1100 UTC 05 August 2021
Forecast type: FROM: standard forecast or significant change
Winds: from the NNW (330 degrees) at 8 MPH (7 knots; 3.6 m/s)
Visibility: 6 or more miles (10+ km)
Clouds: clear skies
Weather: no significant weather forecast for this period
Text: FM051100 31004KT P6SM SCT012
Forecast period: 1100 to 1200 UTC 05 August 2021
Forecast type: FROM: standard forecast or significant change
Winds: from the NW (310 degrees) at 5 MPH (4 knots; 2.1 m/s)
Visibility: 6 or more miles (10+ km)
Ceiling: at least 12,000 feet AGL
Clouds: scattered clouds at 1200 feet AGL
Weather: no significant weather forecast for this period